Date,TemperatureHighF,TemperatureAvgF,TemperatureLowF,DewpointHighF,DewpointAvgF,DewpointLowF,HumidityHigh,HumidityAvg,HumidityLow,PressureMaxIn,PressureMinIn,WindSpeedMaxMPH,WindSpeedAvgMPH,GustSpeedMaxMPH,PrecipitationSumIn
2013-4-1,70.3,54.4,40.5,51.1,41.8,31.5,100,68,31,29.95,29.68,13,2,26,0.00
2013-4-2,55.2,44.2,30.0,34.0,24.6,12.2,90,53,19,30.15,29.95,15,2,20,0.00
2013-4-3,56.7,42.5,27.0,32.5,22.2,13.1,95,53,18,30.35,30.15,12,-5,17,0.00
2013-4-4,46.2,39.7,29.3,39.0,26.8,16.3,97,62,31,30.40,30.04,11,1,13,0.27
2013-4-5,62.8,48.1,38.8,45.5,39.0,29.1,99,76,28,30.03,29.81,4,1,10,0.53
2013-4-6,53.6,45.7,36.7,38.5,30.9,24.1,96,59,34,30.30,29.99,7,2,11,0.00
2013-4-7,70.3,54.4,35.6,45.1,40.4,34.5,98,63,37,30.30,30.01,12,2,18,0.00
2013-4-8,81.1,67.8,56.5,54.1,51.3,43.3,80,58,33,30.08,29.96,12,4,16,0.00
2013-4-9,86.2,73.4,62.6,58.8,55.1,49.8,78,55,29,30.08,29.95,13,4,17,0.00
2013-4-10,90.5,78.4,67.3,60.6,57.6,51.3,71,51,27,29.98,29.81,15,4,19,0.00
2013-4-11,86.7,75.0,64.9,62.2,59.8,57.2,85,61,38,29.87,29.74,14,4,19,0.00
2013-4-12,82.4,72.2,64.0,68.5,65.3,60.4,99,80,54,29.75,29.52,12,3,19,0.34
2013-4-13,64.6,57.9,52.0,64.2,48.1,43.5,99,71,52,29.92,29.61,10,2,17,0.00
2013-4-14,70.3,58.8,45.1,50.9,44.9,34.5,100,64,28,30.11,29.91,7,2,14,0.00
2013-4-15,62.1,58.6,53.6,54.3,51.2,42.1,93,77,54,30.25,30.08,7,2,11,0.01
2013-4-16,72.1,62.7,53.6,60.3,56.4,52.2,97,81,64,30.28,30.17,6,1,16,0.00
2013-4-17,78.1,67.0,59.5,64.8,60.5,57.9,98,81,59,30.19,30.11,7,2,13,0.00
2013-4-18,78.6,67.6,59.9,64.0,60.3,57.9,98,79,52,30.20,30.02,7,2,15,0.05
2013-4-19,83.8,71.3,62.2,67.1,63.8,58.8,99,79,51,30.02,29.65,22,4,30,0.64
2013-4-20,66.0,55.1,46.6,64.8,46.0,33.6,98,74,35,30.27,29.72,4,1,15,0.45
2013-4-21,53.8,49.3,44.8,44.4,34.1,24.1,97,57,32,30.55,30.27,10,2,13,0.00
2013-4-22,55.4,48.6,40.5,45.1,41.4,35.4,90,76,61,30.53,30.32,9,3,12,0.00
2013-4-23,59.9,51.8,45.1,48.9,46.5,44.6,98,83,61,30.31,30.11,6,1,12,0.00
2013-4-24,77.2,60.7,43.0,57.6,51.1,42.8,100,74,44,30.12,29.86,10,2,20,0.00
2013-4-25,67.1,57.0,45.3,55.9,40.8,31.3,86,56,32,30.27,29.92,9,2,13,0.00
2013-4-26,66.0,54.8,40.8,50.4,41.9,33.3,99,67,30,30.42,30.26,7,1,11,0.00
2013-4-27,68.4,56.8,43.5,49.6,42.8,29.3,97,64,27,30.40,30.28,8,1,12,0.00
2013-4-28,65.8,55.9,42.8,53.6,45.8,37.4,98,72,37,30.28,30.13,10,2,15,0.02
2013-4-29,59.4,57.6,54.9,59.2,57.3,53.8,100,99,96,30.14,29.98,10,1,11,1.37
2013-4-30,61.0,57.9,56.1,60.6,57.7,55.8,100,99,97,30.19,30.02,4,0,7,0.07